This is the latest recevied weather packets stored in our database for station/object KC1TEM-13. If no packets are shown the sender has not sent any weather packets the latest 10 day(s).
| Time | Temp. | Humidity | Pressure | Rain* | Wind** | Luminosity | Snow |
|---|---|---|---|---|---|---|---|
| 1777509418 | 6.67° C | 95% | 1013.9 hPa | 0 mm | - | 0 W/m² | - |
| 1777509116 | 6.67° C | 94% | 1013.9 hPa | 0 mm | - | 0 W/m² | - |
| 1777508813 | 6.67° C | 94% | 1014 hPa | 0 mm | - | 0 W/m² | - |
| 1777508510 | 6.67° C | 94% | 1014.1 hPa | 0 mm | - | 0 W/m² | - |
| 1777507298 | 6.67° C | 92% | 1014.2 hPa | 0 mm | - | 0 W/m² | - |
| 1777502747 | 7.22° C | 88% | 1014.3 hPa | 0 mm | - | 23 W/m² | - |
| 1777496077 | 9.44° C | 79% | 1014.8 hPa | 0 mm | - | 154 W/m² | - |
| 1777495470 | 8.89° C | 80% | 1014.7 hPa | 0 mm | - | 155 W/m² | - |
| 1777495166 | 8.89° C | 78% | 1015 hPa | 0 mm | - | 148 W/m² | - |
| 1777494863 | 9.44° C | 78% | 1015.2 hPa | 0 mm | - | 142 W/m² | - |
| 1777494258 | 9.44° C | 78% | 1015.2 hPa | 0 mm | - | 176 W/m² | - |
| 1777493955 | 9.44° C | 77% | 1015.3 hPa | 0 mm | - | 206 W/m² | - |
| 1777493046 | 9.44° C | 78% | 1015.2 hPa | 0 mm | - | 217 W/m² | - |
| 1777491837 | 9.44° C | 80% | 1015.6 hPa | 0 mm | - | 226 W/m² | - |
| 1777491533 | 9.44° C | 79% | 1015.7 hPa | 0 mm | - | 196 W/m² | - |
| 1777491231 | 9.44° C | 78% | 1015.8 hPa | 0 mm | - | 177 W/m² | - |
| 1777490927 | 9.44° C | 78% | 1015.9 hPa | 0 mm | - | 193 W/m² | - |
| 1777490623 | 9.44° C | 78% | 1016.1 hPa | 0 mm | - | 185 W/m² | - |
| 1777490319 | 9.44° C | 78% | 1016.1 hPa | 0 mm | - | 171 W/m² | - |
| 1777490017 | 9.44° C | 78% | 1016.1 hPa | 0 mm | - | 161 W/m² | - |
| 1777489715 | 9.44° C | 77% | 1016.3 hPa | 0 mm | - | 161 W/m² | - |
| 1777489411 | 10° C | 77% | 1016.1 hPa | 0 mm | - | 170 W/m² | - |
| 1777489108 | 9.44° C | 78% | 1016.2 hPa | 0 mm | - | 181 W/m² | - |
| 1777488503 | 9.44° C | 77% | 1016.1 hPa | 0 mm | - | 235 W/m² | - |
| 1777487898 | 10° C | 76% | 1016.4 hPa | 0 mm | - | 298 W/m² | - |
* Rain latest hour (hover to see other rain measurements)
** Current wind speed in m/s (hover to see current wind gust speed)